| time (UTC) | temp C | wind direction | speed KPH | gust KPH | rain 1hr cm | rain 24hr cm | rain mn cm | humidity % | barometer mb |
| 20260906225546 | 29 | 308 | 8.0 | 16.1 | 0.00 | 0.03 | 0.00 | 38 | 1020.6 |
| 20260906225048 | 29 | 299 | 9.7 | 16.1 | 0.00 | 0.03 | 0.00 | 38 | 1020.6 |
| 20260906224547 | 30 | 308 | 9.7 | 16.1 | 0.00 | 0.03 | 0.00 | 36 | 1020.6 |
| 20260906224047 | 30 | 297 | 9.7 | 14.5 | 0.00 | 0.03 | 0.00 | 37 | 1020.6 |
| 20260906223547 | 30 | 309 | 8.0 | 14.5 | 0.00 | 0.03 | 0.00 | 37 | 1020.6 |
| 20260906223048 | 30 | 1 | 4.8 | 12.9 | 0.00 | 0.03 | 0.00 | 36 | 1020.6 |
| 20260906222548 | 30 | 308 | 3.2 | 11.3 | 0.00 | 0.03 | 0.00 | 36 | 1020.6 |
| 20260906222047 | 30 | 55 | 4.8 | 16.1 | 0.00 | 0.03 | 0.00 | 36 | 1020.6 |
| 20260906221818 | 30 | 33 | 8.0 | 16.1 | 0.00 | 0.03 | 0.00 | 36 | 1020.6 |
| 20260906221049 | 30 | 48 | 6.4 | 16.1 | 0.00 | 0.03 | 0.00 | 37 | 1020.6 |
| 20260906220548 | 29 | 89 | 3.2 | 12.9 | 0.00 | 0.03 | 0.00 | 38 | 1020.6 |
| 20260906220046 | 29 | 85 | 1.6 | 9.7 | 0.00 | 0.03 | 0.00 | 37 | 1020.6 |
| 20260906215548 | 30 | 359 | 1.6 | 6.4 | 0.00 | 0.03 | 0.00 | 36 | 1020.6 |
| 20260906215046 | 30 | 347 | 3.2 | 12.9 | 0.00 | 0.03 | 0.00 | 36 | 1020.6 |
| 20260906214548 | 30 | 87 | 4.8 | 12.9 | 0.00 | 0.03 | 0.00 | 37 | 1020.6 |
| 20260906214046 | 30 | 85 | 4.8 | 12.9 | 0.00 | 0.03 | 0.00 | 36 | 1020.6 |
| 20260906213547 | 30 | 84 | 8.0 | 17.7 | 0.00 | 0.03 | 0.00 | 35 | 1020.6 |
| 20260906213319 | 30 | 98 | 8.0 | 17.7 | 0.00 | 0.03 | 0.00 | 35 | 1020.6 |
| 20260906212547 | 30 | 110 | 8.0 | 16.1 | 0.00 | 0.03 | 0.00 | 35 | 1020.6 |
| 20260906212048 | 30 | 98 | 6.4 | 14.5 | 0.00 | 0.03 | 0.00 | 36 | 1020.6 |
| 20260906211821 | 30 | 178 | 6.4 | 14.5 | 0.00 | 0.03 | 0.00 | 36 | 1020.6 |
| 20260906211044 | 29 | 280 | 8.0 | 14.5 | 0.00 | 0.03 | 0.00 | 35 | 1020.6 |
| 20260906210544 | 30 | 75 | 8.0 | 16.1 | 0.00 | 0.03 | 0.00 | 35 | 1020.6 |
| 20260906210046 | 29 | 54 | 6.4 | 16.1 | 0.00 | 0.03 | 0.00 | 37 | 1020.6 |
| 20260906205546 | 28 | 109 | 4.8 | 14.5 | 0.00 | 0.03 | 0.00 | 37 | 1020.6 |
| 20260906205045 | 28 | 79 | 4.8 | 12.9 | 0.00 | 0.03 | 0.00 | 38 | 1020.6 |
| 20260906204543 | 29 | 64 | 8.0 | 16.1 | 0.00 | 0.03 | 0.00 | 36 | 1020.6 |
| 20260906204042 | 30 | 77 | 8.0 | 16.1 | 0.00 | 0.03 | 0.00 | 36 | 1020.6 |
| 20260906203541 | 30 | 113 | 6.4 | 14.5 | 0.00 | 0.03 | 0.00 | 36 | 1020.6 |
| 20260906203039 | 30 | 115 | 4.8 | 14.5 | 0.00 | 0.03 | 0.00 | 37 | 1020.6 |
| 20260906202538 | 29 | 148 | 4.8 | 9.7 | 0.00 | 0.03 | 0.00 | 39 | 1020.6 |
| 20260906202039 | 29 | 54 | 6.4 | 17.7 | 0.00 | 0.03 | 0.00 | 38 | 1020.6 |
| 20260906201538 | 29 | 104 | 8.0 | 17.7 | 0.00 | 0.03 | 0.00 | 37 | 1020.6 |
| 20260906201039 | 29 | 101 | 8.0 | 19.3 | 0.00 | 0.03 | 0.00 | 38 | 1020.6 |
| 20260906200811 | 28 | 84 | 4.8 | 19.3 | 0.00 | 0.03 | 0.00 | 37 | 1020.6 |
| 20260906200039 | 28 | 90 | 6.4 | 16.1 | 0.00 | 0.03 | 0.00 | 38 | 1020.6 |
| 20260906195808 | 29 | 91 | 4.8 | 16.1 | 0.00 | 0.03 | 0.00 | 36 | 1020.6 |
| 20260906195041 | 29 | 122 | 3.2 | 8.0 | 0.00 | 0.03 | 0.00 | 35 | 1020.6 |
| 20260906194538 | 29 | 148 | 3.2 | 12.9 | 0.00 | 0.03 | 0.00 | 34 | 1020.6 |
| 20260906194040 | 28 | 84 | 4.8 | 12.9 | 0.00 | 0.03 | 0.00 | 37 | 1020.6 |
| 20260906193540 | 28 | 84 | 6.4 | 14.5 | 0.00 | 0.03 | 0.00 | 37 | 1020.6 |
| 20260906193040 | 28 | 96 | 8.0 | 16.1 | 0.00 | 0.03 | 0.00 | 36 | 1020.6 |
| 20260906192537 | 28 | 104 | 8.0 | 16.1 | 0.00 | 0.03 | 0.00 | 37 | 1020.6 |
| 20260906192036 | 28 | 89 | 4.8 | 11.3 | 0.00 | 0.03 | 0.00 | 36 | 1020.6 |
| 20260906191536 | 28 | 119 | 4.8 | 11.3 | 0.00 | 0.03 | 0.00 | 37 | 1020.6 |
| 20260906191038 | 28 | 89 | 4.8 | 14.5 | 0.00 | 0.03 | 0.00 | 39 | 1020.6 |
| 20260906190536 | 28 | 85 | 4.8 | 14.5 | 0.00 | 0.03 | 0.00 | 40 | 1020.6 |
| 20260906190036 | 27 | 117 | 6.4 | 12.9 | 0.00 | 0.03 | 0.00 | 38 | 1020.6 |
| 20260906185537 | 27 | 32 | 8.0 | 14.5 | 0.00 | 0.03 | 0.00 | 39 | 1020.6 |
| 20260906185037 | 27 | 101 | 8.0 | 16.1 | 0.00 | 0.03 | 0.00 | 37 | 1020.6 |
| 20260906184534 | 27 | 110 | 6.4 | 16.1 | 0.00 | 0.03 | 0.00 | 38 | 1020.6 |
| 20260906184034 | 28 | 79 | 4.8 | 16.1 | 0.00 | 0.03 | 0.00 | 39 | 1020.6 |
| 20260906183534 | 27 | 17 | 6.4 | 17.7 | 0.00 | 0.03 | 0.00 | 40 | 1020.6 |
| 20260906183035 | 27 | 82 | 8.0 | 17.7 | 0.00 | 0.03 | 0.00 | 40 | 1020.6 |
| 20260906182535 | 27 | 95 | 6.4 | 12.9 | 0.00 | 0.03 | 0.00 | 40 | 1020.6 |
| 20260906182034 | 27 | 36 | 6.4 | 11.3 | 0.00 | 0.03 | 0.00 | 39 | 1020.6 |
| 20260906181535 | 27 | 15 | 6.4 | 11.3 | 0.00 | 0.03 | 0.00 | 41 | 1020.6 |
| 20260906181034 | 26 | 63 | 6.4 | 16.1 | 0.00 | 0.03 | 0.00 | 42 | 1020.6 |
| 20260906180536 | 26 | 91 | 6.4 | 16.1 | 0.00 | 0.03 | 0.00 | 42 | 1020.6 |
| 20260906180032 | 26 | 358 | 3.2 | 11.3 | 0.00 | 0.03 | 0.00 | 45 | 1020.6 |
| 20260906175805 | 26 | 96 | 4.8 | 12.9 | 0.00 | 0.03 | 0.00 | 43 | 1020.6 |
| 20260906175034 | 26 | 92 | 8.0 | 12.9 | 0.00 | 0.03 | 0.00 | 45 | 1020.6 |
| 20260906174532 | 26 | 44 | 6.4 | 12.9 | 0.00 | 0.03 | 0.00 | 43 | 1020.6 |
| 20260906174033 | 26 | 90 | 6.4 | 11.3 | 0.00 | 0.03 | 0.00 | 46 | 1020.6 |
| 20260906173532 | 26 | 37 | 6.4 | 11.3 | 0.00 | 0.03 | 0.00 | 46 | 1020.6 |
| 20260906173033 | 25 | 53 | 4.8 | 11.3 | 0.00 | 0.03 | 0.00 | 47 | 1020.6 |
| 20260906172532 | 25 | 97 | 4.8 | 11.3 | 0.00 | 0.03 | 0.00 | 47 | 1020.6 |
| 20260906172306 | 25 | 76 | 4.8 | 11.3 | 0.00 | 0.03 | 0.00 | 47 | 1020.6 |
| 20260906171805 | 25 | 82 | 6.4 | 12.9 | 0.00 | 0.03 | 0.00 | 47 | 1020.6 |
| 20260906171031 | 25 | 87 | 6.4 | 12.9 | 0.00 | 0.03 | 0.00 | 47 | 1020.6 |
| 20260906170530 | 25 | 79 | 6.4 | 12.9 | 0.00 | 0.03 | 0.00 | 47 | 1020.6 |
| 20260906170030 | 25 | 84 | 6.4 | 11.3 | 0.00 | 0.03 | 0.00 | 48 | 1020.6 |
| 20260906165530 | 25 | 68 | 6.4 | 12.9 | 0.00 | 0.03 | 0.00 | 48 | 1020.6 |
| 20260906165032 | 25 | 84 | 4.8 | 12.9 | 0.00 | 0.03 | 0.00 | 49 | 1020.6 |
| 20260906164529 | 24 | 112 | 3.2 | 9.7 | 0.00 | 0.03 | 0.00 | 48 | 1020.6 |
| 20260906164030 | 24 | 83 | 4.8 | 11.3 | 0.00 | 0.03 | 0.00 | 50 | 1020.6 |
| 20260906163530 | 23 | 98 | 4.8 | 11.3 | 0.00 | 0.03 | 0.00 | 50 | 1020.6 |
| 20260906163031 | 23 | 64 | 4.8 | 11.3 | 0.00 | 0.03 | 0.00 | 50 | 1020.6 |
| 20260906162530 | 24 | 80 | 4.8 | 11.3 | 0.00 | 0.03 | 0.00 | 51 | 1020.6 |
| 20260906162028 | 23 | 60 | 3.2 | 9.7 | 0.00 | 0.03 | 0.00 | 52 | 1020.6 |
| 20260906161528 | 23 | 89 | 4.8 | 9.7 | 0.00 | 0.03 | 0.00 | 53 | 1020.6 |
| 20260906161300 | 23 | 101 | 4.8 | 8.0 | 0.00 | 0.03 | 0.00 | 55 | 1020.6 |
| 20260906160528 | 23 | 82 | 3.2 | 9.7 | 0.00 | 0.03 | 0.00 | 56 | 1020.6 |
| 20260906160029 | 23 | 89 | 4.8 | 9.7 | 0.00 | 0.03 | 0.00 | 56 | 1020.6 |
| 20260906155531 | 23 | 83 | 3.2 | 9.7 | 0.00 | 0.03 | 0.00 | 56 | 1020.6 |
| 20260906155029 | 23 | 75 | 3.2 | 9.7 | 0.00 | 0.03 | 0.00 | 55 | 1020.6 |
| 20260906154528 | 23 | 82 | 3.2 | 11.3 | 0.00 | 0.03 | 0.00 | 55 | 1020.6 |
| 20260906154027 | 23 | 70 | 3.2 | 11.3 | 0.00 | 0.03 | 0.00 | 55 | 1020.6 |
| 20260906153528 | 23 | 76 | 1.6 | 11.3 | 0.00 | 0.03 | 0.00 | 53 | 1020.6 |
| 20260906153254 | 23 | 77 | 1.6 | 6.4 | 0.00 | 0.03 | 0.00 | 52 | 1020.6 |
| 20260906152525 | 23 | 118 | 1.6 | 4.8 | 0.00 | 0.03 | 0.00 | 53 | 1020.6 |
| 20260906152026 | 23 | 95 | 0.0 | 4.8 | 0.00 | 0.03 | 0.00 | 56 | 1020.6 |
| 20260906151757 | 22 | 113 | 0.0 | 4.8 | 0.00 | 0.03 | 0.00 | 57 | 1020.6 |
| 20260906151024 | 22 | 99 | 0.0 | 3.2 | 0.00 | 0.03 | 0.00 | 59 | 1020.6 |
| 20260906150524 | 22 | 88 | 0.0 | 3.2 | 0.00 | 0.03 | 0.00 | 60 | 1020.6 |
| 20260906150023 | 21 | 88 | 0.0 | 3.2 | 0.00 | 0.03 | 0.00 | 61 | 1020.6 |
| 20260906145522 | 21 | 270 | 1.6 | 8.0 | 0.00 | 0.03 | 0.00 | 63 | 1020.6 |
| 20260906145021 | 21 | 311 | 1.6 | 8.0 | 0.00 | 0.03 | 0.00 | 63 | 1020.6 |
| 20260906144524 | 21 | 264 | 0.0 | 4.8 | 0.00 | 0.03 | 0.00 | 64 | 1020.6 |
| 20260906144022 | 20 | 354 | 0.0 | 4.8 | 0.00 | 0.03 | 0.00 | 67 | 1020.6 |
| 20260906143522 | 20 | 58 | 0.0 | 1.6 | 0.00 | 0.03 | 0.00 | 68 | 1020.6 |
| 20260906143027 | 20 | 58 | 1.6 | 6.4 | 0.00 | 0.03 | 0.00 | 70 | 1020.6 |
| 20260906143022 | 20 | 58 | 1.6 | 6.4 | 0.00 | 0.03 | 0.00 | 71 | 1020.6 |
| 20260906142020 | 20 | 53 | 1.6 | 4.8 | 0.00 | 0.03 | 0.00 | 72 | 1020.6 |
| 20260906141521 | 19 | 352 | 1.6 | 4.8 | 0.00 | 0.03 | 0.00 | 75 | 1020.6 |
| 20260906141253 | 19 | 312 | 1.6 | 4.8 | 0.00 | 0.03 | 0.00 | 75 | 1020.6 |
| 20260906140521 | 19 | 291 | 1.6 | 8.0 | 0.00 | 0.03 | 0.00 | 74 | 1020.6 |
| 20260906140021 | 19 | 355 | 3.2 | 8.0 | 0.00 | 0.03 | 0.00 | 75 | 1020.6 |
| 20260906135520 | 18 | 299 | 3.2 | 6.4 | 0.00 | 0.03 | 0.00 | 75 | 1020.6 |
| 20260906135023 | 18 | 359 | 3.2 | 8.0 | 0.00 | 0.03 | 0.00 | 75 | 1020.6 |
| 20260906134517 | 18 | 319 | 4.8 | 9.7 | 0.00 | 0.03 | 0.00 | 75 | 1020.6 |
| 20260906134020 | 17 | 317 | 4.8 | 9.7 | 0.00 | 0.03 | 0.00 | 76 | 1020.6 |
| 20260906133750 | 17 | 311 | 4.8 | 9.7 | 0.00 | 0.03 | 0.00 | 76 | 1020.6 |
| 20260906133017 | 17 | 314 | 4.8 | 8.0 | 0.00 | 0.03 | 0.00 | 76 | 1020.6 |
| 20260906132516 | 17 | 326 | 4.8 | 8.0 | 0.00 | 0.03 | 0.00 | 76 | 1020.6 |
| 20260906132017 | 16 | 297 | 3.2 | 6.4 | 0.00 | 0.03 | 0.00 | 76 | 1020.6 |
| 20260906131747 | 16 | 315 | 3.2 | 6.4 | 0.00 | 0.03 | 0.00 | 77 | 1020.6 |
| 20260906131014 | 16 | 311 | 4.8 | 6.4 | 0.00 | 0.03 | 0.00 | 76 | 1020.6 |
| 20260906130513 | 15 | 297 | 4.8 | 6.4 | 0.00 | 0.03 | 0.00 | 76 | 1020.6 |
| 20260906130011 | 15 | 300 | 4.8 | 6.4 | 0.00 | 0.03 | 0.00 | 78 | 1020.6 |
| 20260906125515 | 15 | 299 | 3.2 | 6.4 | 0.00 | 0.03 | 0.00 | 80 | 1020.6 |
| 20260906125010 | 15 | 304 | 3.2 | 4.8 | 0.00 | 0.03 | 0.00 | 80 | 1020.6 |
| 20260906124509 | 15 | 300 | 3.2 | 4.8 | 0.00 | 0.03 | 0.00 | 79 | 1020.6 |
| 20260906124241 | 15 | 295 | 3.2 | 6.4 | 0.00 | 0.03 | 0.00 | 79 | 1020.6 |
| 20260906123742 | 15 | 290 | 3.2 | 6.4 | 0.00 | 0.03 | 0.00 | 79 | 1020.6 |
| 20260906123010 | 15 | 281 | 3.2 | 4.8 | 0.00 | 0.03 | 0.00 | 79 | 1020.6 |
| 20260906122510 | 15 | 294 | 3.2 | 8.0 | 0.00 | 0.03 | 0.00 | 79 | 1020.6 |
| 20260906122242 | 15 | 293 | 3.2 | 8.0 | 0.00 | 0.03 | 0.00 | 78 | 1020.6 |
| 20260906122131 | 15 | 296 | 3.2 | 6.4 | 0.00 | 0.03 | 0.00 | 79 | 1020.6 |
| 20260906121240 | 15 | 280 | 4.8 | 8.0 | 0.00 | 0.03 | 0.00 | 79 | 1020.6 |
| 20260906120510 | 15 | 295 | 3.2 | 8.0 | 0.00 | 0.03 | 0.00 | 79 | 1020.6 |
| 20260906120014 | 15 | 292 | 3.2 | 4.8 | 0.00 | 0.03 | 0.00 | 79 | 1020.6 |
| 20260906120009 | 15 | 298 | 1.6 | 4.8 | 0.00 | 0.03 | 0.00 | 79 | 1020.6 |
| 20260906115628 | 15 | 291 | 3.2 | 6.4 | 0.00 | 0.03 | 0.00 | 79 | 1020.6 |
| 20260906114510 | 16 | 307 | 3.2 | 6.4 | 0.00 | 0.03 | 0.00 | 78 | 1020.6 |
| 20260906114010 | 15 | 304 | 3.2 | 6.4 | 0.00 | 0.03 | 0.00 | 78 | 1020.6 |
| 20260906113516 | 15 | 317 | 4.8 | 9.7 | 0.00 | 0.03 | 0.00 | 77 | 1020.6 |
| 20260906113511 | 15 | 313 | 4.8 | 9.7 | 0.00 | 0.03 | 0.00 | 78 | 1020.6 |
| 20260906112510 | 15 | 308 | 4.8 | 8.0 | 0.00 | 0.03 | 0.00 | 76 | 1020.6 |
| 20260906112010 | 15 | 300 | 3.2 | 8.0 | 0.00 | 0.03 | 0.00 | 76 | 1020.6 |
| 20260906111512 | 16 | 304 | 3.2 | 8.0 | 0.00 | 0.03 | 0.00 | 74 | 1020.6 |
| 20260906111011 | 16 | 6 | 3.2 | 8.0 | 0.00 | 0.03 | 0.00 | 73 | 1020.6 |
| 20260906110510 | 16 | 331 | 4.8 | 8.0 | 0.00 | 0.03 | 0.00 | 72 | 1020.6 |
| 20260906110011 | 16 | 4 | 3.2 | 8.0 | 0.00 | 0.03 | 0.00 | 71 | 1020.6 |
| 20260906105741 | 16 | 290 | 3.2 | 8.0 | 0.00 | 0.03 | 0.00 | 70 | 1020.6 |
| 20260906105241 | 16 | 330 | 3.2 | 8.0 | 0.00 | 0.03 | 0.00 | 69 | 1020.6 |
| 20260906104509 | 16 | 338 | 3.2 | 9.7 | 0.00 | 0.03 | 0.00 | 69 | 1020.6 |
| 20260906104016 | 16 | 327 | 3.2 | 6.4 | 0.00 | 0.03 | 0.00 | 68 | 1020.6 |
| 20260906104011 | 16 | 325 | 3.2 | 9.7 | 0.00 | 0.03 | 0.00 | 68 | 1020.6 |
| 20260906103010 | 16 | 304 | 3.2 | 6.4 | 0.00 | 0.03 | 0.00 | 68 | 1020.6 |
| 20260906102510 | 16 | 304 | 3.2 | 6.4 | 0.00 | 0.03 | 0.00 | 68 | 1020.6 |
| 20260906102011 | 16 | 309 | 3.2 | 8.0 | 0.00 | 0.03 | 0.00 | 68 | 1020.6 |
| 20260906101509 | 16 | 316 | 3.2 | 8.0 | 0.00 | 0.03 | 0.00 | 68 | 1020.6 |
| 20260906101011 | 16 | 355 | 4.8 | 9.7 | 0.00 | 0.03 | 0.00 | 67 | 1020.6 |
| 20260906100511 | 17 | 348 | 4.8 | 9.7 | 0.00 | 0.03 | 0.00 | 67 | 1020.6 |
| 20260906100012 | 17 | 324 | 3.2 | 9.7 | 0.00 | 0.03 | 0.00 | 67 | 1020.6 |
| 20260906095509 | 17 | 19 | 1.6 | 8.0 | 0.00 | 0.03 | 0.00 | 65 | 1020.6 |
| 20260906095011 | 17 | 33 | 1.6 | 4.8 | 0.00 | 0.03 | 0.00 | 63 | 1020.6 |
| 20260906094508 | 17 | 8 | 0.0 | 4.8 | 0.00 | 0.03 | 0.00 | 62 | 1020.6 |
| 20260906094240 | 17 | 333 | 0.0 | 3.2 | 0.00 | 0.03 | 0.00 | 60 | 1020.6 |
| 20260906093511 | 17 | 352 | 1.6 | 3.2 | 0.00 | 0.03 | 0.00 | 58 | 1020.6 |
| 20260906093007 | 17 | 302 | 1.6 | 3.2 | 0.00 | 0.03 | 0.00 | 57 | 1020.6 |
| 20260906092506 | 17 | 295 | 0.0 | 3.2 | 0.00 | 0.03 | 0.00 | 58 | 1020.6 |
| 20260906092006 | 17 | 296 | 1.6 | 3.2 | 0.00 | 0.03 | 0.00 | 57 | 1020.6 |
| 20260906091506 | 18 | 294 | 1.6 | 6.4 | 0.00 | 0.03 | 0.00 | 55 | 1020.6 |
| 20260906091238 | 18 | 295 | 3.2 | 6.4 | 0.00 | 0.03 | 0.00 | 55 | 1020.6 |
| 20260906090504 | 19 | 304 | 1.6 | 6.4 | 0.00 | 0.03 | 0.00 | 53 | 1020.6 |
| 20260906090236 | 19 | 304 | 1.6 | 6.4 | 0.00 | 0.03 | 0.00 | 53 | 1020.6 |
| 20260906085506 | 20 | 334 | 1.6 | 4.8 | 0.00 | 0.03 | 0.00 | 52 | 1020.6 |
| 20260906085003 | 20 | 288 | 0.0 | 4.8 | 0.00 | 0.03 | 0.00 | 51 | 1020.6 |
| 20260906084503 | 19 | 330 | 1.6 | 6.4 | 0.00 | 0.03 | 0.00 | 51 | 1020.6 |
| 20260906084002 | 19 | 10 | 1.6 | 6.4 | 0.00 | 0.03 | 0.00 | 52 | 1020.6 |
| 20260906083503 | 19 | 358 | 3.2 | 9.7 | 0.00 | 0.03 | 0.00 | 53 | 1020.6 |
| 20260906083001 | 19 | 337 | 3.2 | 9.7 | 0.00 | 0.03 | 0.00 | 53 | 1020.6 |
| 20260906082503 | 18 | 312 | 4.8 | 8.0 | 0.00 | 0.03 | 0.00 | 54 | 1020.6 |
| 20260906082000 | 18 | 306 | 6.4 | 9.7 | 0.00 | 0.03 | 0.00 | 55 | 1020.6 |
| 20260906081501 | 18 | 293 | 6.4 | 9.7 | 0.00 | 0.03 | 0.00 | 55 | 1020.6 |
| 20260906081000 | 19 | 311 | 6.4 | 9.7 | 0.00 | 0.03 | 0.00 | 54 | 1020.6 |
| 20260906080501 | 18 | 314 | 8.0 | 11.3 | 0.00 | 0.03 | 0.00 | 54 | 1020.6 |
| 20260906075958 | 18 | 305 | 8.0 | 12.9 | 0.00 | 0.03 | 0.00 | 54 | 1020.6 |
| 20260906075500 | 19 | 298 | 8.0 | 12.9 | 0.00 | 0.03 | 0.00 | 54 | 1020.6 |
| 20260906075228 | 18 | 288 | 6.4 | 9.7 | 0.00 | 0.03 | 0.00 | 55 | 1020.6 |
| 20260906074457 | 18 | 305 | 6.4 | 9.7 | 0.00 | 0.03 | 0.00 | 55 | 1020.6 |
| 20260906074228 | 19 | 298 | 6.4 | 9.7 | 0.00 | 0.03 | 0.00 | 53 | 1020.6 |
| 20260906073457 | 19 | 301 | 6.4 | 9.7 | 0.00 | 0.03 | 0.00 | 53 | 1020.6 |
| 20260906072957 | 19 | 295 | 6.4 | 8.0 | 0.00 | 0.03 | 0.00 | 54 | 1020.6 |
| 20260906072727 | 20 | 300 | 4.8 | 8.0 | 0.00 | 0.03 | 0.00 | 54 | 1020.6 |
| 20260906072229 | 20 | 300 | 4.8 | 6.4 | 0.00 | 0.03 | 0.00 | 54 | 1020.6 |
| 20260906071458 | 20 | 293 | 4.8 | 8.0 | 0.00 | 0.03 | 0.00 | 54 | 1020.6 |
| 20260906070959 | 20 | 308 | 4.8 | 8.0 | 0.00 | 0.03 | 0.00 | 53 | 1020.6 |
| 20260906070459 | 21 | 299 | 3.2 | 8.0 | 0.00 | 0.03 | 0.00 | 47 | 1020.6 |
| 20260906065959 | 21 | 285 | 4.8 | 8.0 | 0.00 | 0.03 | 0.00 | 49 | 1020.6 |
| 20260906065458 | 21 | 285 | 3.2 | 8.0 | 0.00 | 0.03 | 0.00 | 50 | 1020.6 |
| 20260906064958 | 21 | 292 | 1.6 | 8.0 | 0.00 | 0.03 | 0.00 | 52 | 1020.6 |
| 20260906064456 | 21 | 279 | 1.6 | 3.2 | 0.00 | 0.03 | 0.00 | 51 | 1020.6 |
| 20260906063957 | 21 | 278 | 1.6 | 3.2 | 0.00 | 0.03 | 0.00 | 53 | 1020.6 |
| 20260906063454 | 20 | 279 | 0.0 | 1.6 | 0.00 | 0.03 | 0.00 | 55 | 1020.6 |
| 20260906062955 | 20 | 278 | 0.0 | 3.2 | 0.00 | 0.03 | 0.00 | 57 | 1020.6 |
| 20260906062453 | 20 | 272 | 0.0 | 3.2 | 0.00 | 0.03 | 0.00 | 60 | 1020.6 |
| 20260906061956 | 20 | 219 | 0.0 | 0.0 | 0.03 | 0.03 | 0.00 | 56 | 1020.6 |
| 20260906061454 | 20 | 219 | 0.0 | 0.0 | 0.03 | 0.03 | 0.00 | 56 | 1020.6 |
| 20260906061224 | 20 | 219 | 0.0 | 1.6 | 0.03 | 0.03 | 0.00 | 56 | 1020.6 |
| 20260906060454 | 20 | 219 | 0.0 | 1.6 | 0.03 | 0.03 | 0.00 | 57 | 1020.6 |
| 20260906055950 | 20 | 219 | 0.0 | 4.8 | 0.03 | 0.03 | 0.03 | 56 | 1020.6 |
| 20260906055450 | 20 | 231 | 0.0 | 4.8 | 0.03 | 0.03 | 0.03 | 61 | 1020.6 |
| 20260906054951 | 20 | 255 | 3.2 | 6.4 | 0.03 | 0.03 | 0.03 | 58 | 1020.6 |
| 20260906054453 | 21 | 295 | 4.8 | 8.0 | 0.03 | 0.03 | 0.03 | 55 | 1020.6 |
| 20260906053951 | 20 | 288 | 4.8 | 8.0 | 0.03 | 0.03 | 0.03 | 55 | 1020.6 |
| 20260906053449 | 20 | 295 | 4.8 | 11.3 | 0.03 | 0.03 | 0.03 | 59 | 1020.6 |
| 20260906052950 | 20 | 308 | 4.8 | 11.3 | 0.03 | 0.03 | 0.03 | 64 | 1020.6 |
| 20260906052451 | 20 | 305 | 3.2 | 11.3 | 0.03 | 0.03 | 0.03 | 62 | 1020.6 |
| 20260906051949 | 21 | 226 | 0.0 | 0.0 | 0.00 | 0.00 | 0.00 | 53 | 1020.6 |
| 20260906051450 | 22 | 167 | 0.0 | 3.2 | 0.00 | 0.00 | 0.00 | 51 | 1020.6 |
| 20260906050948 | 22 | 158 | 0.0 | 3.2 | 0.00 | 0.00 | 0.00 | 48 | 1020.6 |
| 20260906050450 | 23 | 272 | 0.0 | 1.6 | 0.00 | 0.00 | 0.00 | 46 | 1020.6 |
| 20260906045947 | 23 | 280 | 0.0 | 3.2 | 0.00 | 0.00 | 0.00 | 45 | 1020.6 |
| 20260906045448 | 23 | 101 | 0.0 | 3.2 | 0.00 | 0.00 | 0.00 | 42 | 1020.6 |
| 20260906044948 | 24 | 184 | 0.0 | 1.6 | 0.00 | 0.00 | 0.00 | 39 | 1020.6 |
| 20260906044449 | 24 | 90 | 0.0 | 4.8 | 0.00 | 0.00 | 0.00 | 38 | 1020.6 |
| 20260906043948 | 24 | 319 | 3.2 | 8.0 | 0.00 | 0.00 | 0.00 | 37 | 1020.6 |
| 20260906043717 | 24 | 351 | 6.4 | 16.1 | 0.00 | 0.00 | 0.00 | 37 | 1020.6 |
| 20260906042948 | 25 | 315 | 8.0 | 16.1 | 0.00 | 0.00 | 0.00 | 37 | 1020.6 |
| 20260906042447 | 25 | 319 | 8.0 | 20.9 | 0.00 | 0.00 | 0.00 | 37 | 1020.6 |
| 20260906041947 | 25 | 281 | 6.4 | 20.9 | 0.00 | 0.00 | 0.00 | 38 | 1020.6 |
| 20260906041446 | 25 | 268 | 4.8 | 20.9 | 0.00 | 0.00 | 0.00 | 39 | 1020.6 |
| 20260906040948 | 25 | 191 | 4.8 | 17.7 | 0.00 | 0.00 | 0.00 | 38 | 1020.6 |
| 20260906040446 | 25 | 267 | 4.8 | 19.3 | 0.00 | 0.00 | 0.00 | 38 | 1020.6 |
| 20260906035945 | 25 | 331 | 4.8 | 19.3 | 0.00 | 0.00 | 0.00 | 38 | 1020.6 |
| 20260906035446 | 25 | 277 | 3.2 | 12.9 | 0.00 | 0.00 | 0.00 | 36 | 1020.6 |
| 20260906034946 | 24 | 291 | 1.6 | 9.7 | 0.00 | 0.00 | 0.00 | 35 | 1020.6 |
| 20260906034446 | 25 | 75 | 4.8 | 12.9 | 0.00 | 0.00 | 0.00 | 34 | 1020.6 |
| 20260906033943 | 26 | 277 | 6.4 | 12.9 | 0.00 | 0.00 | 0.00 | 33 | 1020.6 |
| 20260906033713 | 26 | 280 | 6.4 | 11.3 | 0.00 | 0.00 | 0.00 | 32 | 1020.6 |
| 20260906032943 | 26 | 278 | 6.4 | 11.3 | 0.00 | 0.00 | 0.00 | 32 | 1020.6 |
| 20260906032443 | 26 | 287 | 6.4 | 11.3 | 0.00 | 0.00 | 0.00 | 32 | 1020.6 |
| 20260906031943 | 25 | 290 | 6.4 | 11.3 | 0.00 | 0.00 | 0.00 | 33 | 1020.6 |
| 20260906031445 | 25 | 289 | 6.4 | 11.3 | 0.00 | 0.00 | 0.00 | 33 | 1020.6 |
| 20260906030943 | 25 | 268 | 8.0 | 16.1 | 0.00 | 0.00 | 0.00 | 33 | 1020.6 |
| 20260906030444 | 25 | 288 | 9.7 | 16.1 | 0.00 | 0.00 | 0.00 | 33 | 1020.6 |
| 20260906025943 | 25 | 282 | 8.0 | 16.1 | 0.00 | 0.00 | 0.00 | 34 | 1020.6 |
| 20260906025445 | 25 | 269 | 8.0 | 12.9 | 0.00 | 0.00 | 0.00 | 34 | 1020.6 |
| 20260906024942 | 25 | 292 | 8.0 | 14.5 | 0.00 | 0.00 | 0.00 | 34 | 1020.6 |
| 20260906024714 | 25 | 295 | 8.0 | 14.5 | 0.00 | 0.00 | 0.00 | 34 | 1020.6 |
| 20260906023945 | 25 | 281 | 9.7 | 14.5 | 0.00 | 0.00 | 0.00 | 34 | 1020.6 |
| 20260906023442 | 25 | 279 | 8.0 | 14.5 | 0.00 | 0.00 | 0.00 | 34 | 1020.6 |
| 20260906022943 | 25 | 299 | 6.4 | 11.3 | 0.00 | 0.00 | 0.00 | 34 | 1020.6 |
| 20260906022442 | 25 | 266 | 8.0 | 14.5 | 0.00 | 0.00 | 0.00 | 34 | 1020.6 |
| 20260906021945 | 25 | 297 | 8.0 | 16.1 | 0.00 | 0.00 | 0.00 | 33 | 1020.6 |
| 20260906021443 | 25 | 298 | 8.0 | 16.1 | 0.00 | 0.00 | 0.00 | 33 | 1020.6 |
| 20260906020942 | 25 | 296 | 6.4 | 11.3 | 0.00 | 0.00 | 0.00 | 32 | 1020.6 |
| 20260906020713 | 26 | 298 | 8.0 | 14.5 | 0.00 | 0.00 | 0.00 | 31 | 1020.6 |
| 20260906015945 | 26 | 295 | 9.7 | 17.7 | 0.00 | 0.00 | 0.00 | 31 | 1020.6 |
| 20260906015443 | 26 | 275 | 11.3 | 20.9 | 0.00 | 0.00 | 0.00 | 31 | 1020.6 |
| 20260906014944 | 26 | 287 | 11.3 | 20.9 | 0.00 | 0.00 | 0.00 | 31 | 1020.6 |
| 20260906014443 | 26 | 296 | 9.7 | 19.3 | 0.00 | 0.00 | 0.00 | 31 | 1020.6 |
| 20260906013943 | 26 | 295 | 9.7 | 14.5 | 0.00 | 0.00 | 0.00 | 32 | 1020.6 |
| 20260906013443 | 26 | 288 | 8.0 | 14.5 | 0.00 | 0.00 | 0.00 | 32 | 1020.6 |
| 20260906013215 | 26 | 297 | 8.0 | 14.5 | 0.00 | 0.00 | 0.00 | 32 | 1020.6 |
| 20260906012443 | 26 | 302 | 9.7 | 14.5 | 0.00 | 0.00 | 0.00 | 32 | 1020.6 |
| 20260906011943 | 26 | 301 | 9.7 | 16.1 | 0.00 | 0.00 | 0.00 | 32 | 1020.6 |
| 20260906011445 | 26 | 293 | 9.7 | 16.1 | 0.00 | 0.00 | 0.00 | 32 | 1020.6 |
| 20260906011214 | 26 | 274 | 11.3 | 16.1 | 0.00 | 0.00 | 0.00 | 32 | 1020.6 |
| 20260906010444 | 26 | 298 | 11.3 | 16.1 | 0.00 | 0.00 | 0.00 | 31 | 1020.6 |
| 20260906005943 | 26 | 302 | 11.3 | 16.1 | 0.00 | 0.00 | 0.00 | 31 | 1020.6 |
| 20260906005716 | 26 | 285 | 9.7 | 16.1 | 0.00 | 0.00 | 0.00 | 31 | 1020.6 |
| 20260906005214 | 27 | 317 | 9.7 | 14.5 | 0.00 | 0.00 | 0.00 | 31 | 1020.6 |
| 20260906004444 | 26 | 296 | 8.0 | 12.9 | 0.00 | 0.00 | 0.00 | 31 | 1020.6 |
| 20260906003944 | 27 | 314 | 9.7 | 17.7 | 0.00 | 0.00 | 0.00 | 31 | 1020.6 |
| 20260906003443 | 27 | 302 | 11.3 | 19.3 | 0.00 | 0.00 | 0.00 | 30 | 1020.6 |
| 20260906002943 | 27 | 299 | 9.7 | 19.3 | 0.00 | 0.00 | 0.00 | 30 | 1020.6 |
| 20260906002714 | 28 | 308 | 6.4 | 14.5 | 0.00 | 0.00 | 0.00 | 29 | 1020.6 |
| 20260906001940 | 28 | 336 | 6.4 | 14.5 | 0.00 | 0.00 | 0.00 | 27 | 1020.6 |
| 20260906001440 | 28 | 330 | 6.4 | 12.9 | 0.00 | 0.00 | 0.00 | 27 | 1020.6 |
| 20260906001211 | 28 | 20 | 6.4 | 14.5 | 0.00 | 0.00 | 0.00 | 27 | 1020.6 |
| 20260906000440 | 28 | 18 | 8.0 | 16.1 | 0.00 | 0.00 | 0.00 | 27 | 1020.6 |
| 20260906000212 | 29 | 6 | 6.4 | 16.1 | 0.00 | 0.00 | 0.00 | 26 | 1020.6 |
| 20260905235442 | 29 | 333 | 6.4 | 14.5 | 0.00 | 0.00 | 0.00 | 26 | 1020.6 |
| 20260905234941 | 29 | 313 | 6.4 | 14.5 | 0.00 | 0.00 | 0.00 | 26 | 1020.6 |
| 20260905234441 | 29 | 49 | 6.4 | 12.9 | 0.00 | 0.00 | 0.00 | 26 | 1020.6 |
| 20260905233940 | 29 | 327 | 6.4 | 12.9 | 0.00 | 0.00 | 0.00 | 26 | 1020.6 |
| 20260905233441 | 29 | 15 | 6.4 | 16.1 | 0.00 | 0.00 | 0.00 | 26 | 1020.6 |
| 20260905232938 | 30 | 35 | 6.4 | 16.1 | 0.00 | 0.00 | 0.00 | 25 | 1020.6 |
| 20260905232439 | 30 | 4 | 6.4 | 11.3 | 0.00 | 0.00 | 0.00 | 25 | 1020.6 |
| 20260905231939 | 30 | 55 | 6.4 | 12.9 | 0.00 | 0.00 | 0.00 | 25 | 1020.6 |
| 20260905231440 | 30 | 51 | 6.4 | 12.9 | 0.00 | 0.00 | 0.00 | 24 | 1020.6 |
| 20260905230938 | 30 | 70 | 4.8 | 11.3 | 0.00 | 0.00 | 0.00 | 25 | 1020.6 |
| 20260905230439 | 30 | 70 | 4.8 | 11.3 | 0.00 | 0.00 | 0.00 | 26 | 1020.6 |